Time;durP1;ratioP1;P1;durP2;ratioP2;P2;SDS_P1;SDS_P2;PMS_P1;PMS_P2;Temp;Humidity;BMP_temperature;BMP_pressure;BME280_temperature;BME280_humidity;BME280_pressure;Samples;Min_cycle;Max_cycle;Signal;HPM_P1;HPM_P2
2023/10/16 00:01:38;;;;;;;6.80;5.07;;;;;;;8.80;69.11;102345.50;5102279;28;20016;-67
2023/10/16 00:04:04;;;;;;;6.93;4.85;;;;;;;8.80;69.35;102339.09;5094563;28;20398;-67
2023/10/16 00:06:30;;;;;;;5.57;4.88;;;;;;;8.79;69.49;102331.84;5104658;28;20019;-66
2023/10/16 00:09:00;;;;;;;7.47;5.07;;;;;;;8.80;69.01;102334.44;5102141;28;20027;-67
2023/10/16 00:11:25;;;;;;;6.20;5.20;;;;;;;8.74;68.93;102326.94;5101285;28;20098;-67
2023/10/16 00:13:52;;;;;;;5.63;5.13;;;;;;;8.79;69.07;102326.31;5095277;28;20116;-67
2023/10/16 00:16:21;;;;;;;9.88;5.47;;;;;;;8.77;69.38;102325.69;5104510;28;20024;-67
2023/10/16 00:18:47;;;;;;;7.43;4.95;;;;;;;8.83;68.90;102327.59;5091591;28;20055;-67
2023/10/16 00:21:13;;;;;;;6.57;4.68;;;;;;;8.82;69.40;102331.44;5097660;28;20027;-67
2023/10/16 00:23:40;;;;;;;8.95;4.90;;;;;;;8.86;68.94;102332.75;5107657;28;20105;-67
2023/10/16 00:26:10;;;;;;;9.20;5.45;;;;;;;8.82;69.18;102331.44;5091452;28;20044;-67
2023/10/16 00:28:37;;;;;;;7.03;5.20;;;;;;;8.83;69.79;102327.59;5093100;28;20139;-67
2023/10/16 00:31:08;;;;;;;7.43;5.00;;;;;;;8.80;70.04;102328.91;5092923;28;20123;-67
2023/10/16 00:33:33;;;;;;;7.95;5.45;;;;;;;8.83;69.38;102324.84;5091131;28;20104;-67
2023/10/16 00:36:00;;;;;;;7.38;5.30;;;;;;;8.80;70.23;102325.25;5104078;28;20763;-67
2023/10/16 00:38:25;;;;;;;6.55;4.90;;;;;;;8.85;69.55;102329.13;5110587;28;20042;-67
2023/10/16 00:41:15;;;;;;;6.07;5.30;;;;;;;8.87;70.06;102331.69;5108933;28;20023;-67
2023/10/16 00:43:40;;;;;;;9.07;5.80;;;;;;;8.88;69.85;102332.53;5095848;28;20133;-67
2023/10/16 00:46:08;;;;;;;7.10;4.70;;;;;;;8.88;70.23;102329.75;5107177;28;20042;-67
2023/10/16 00:48:36;;;;;;;8.25;5.20;;;;;;;8.85;69.82;102331.91;5097883;28;20107;-67
2023/10/16 00:51:06;;;;;;;8.23;5.18;;;;;;;8.84;69.51;102329.31;5097564;28;20023;-67
2023/10/16 00:53:32;;;;;;;9.15;5.20;;;;;;;8.86;70.06;102332.75;5109668;28;20068;-67
2023/10/16 00:55:58;;;;;;;7.22;5.28;;;;;;;8.79;69.41;102329.94;5111255;28;20098;-67
2023/10/16 00:58:29;;;;;;;9.45;4.80;;;;;;;8.83;70.02;102327.59;5093625;28;20059;-67
2023/10/16 01:00:57;;;;;;;8.77;5.60;;;;;;;8.78;69.50;102319.94;5089132;28;20047;-67
2023/10/16 01:03:24;;;;;;;9.10;5.35;;;;;;;8.78;69.52;102319.06;5093705;28;20030;-67
2023/10/16 01:05:49;;;;;;;10.55;5.20;;;;;;;8.77;69.60;102323.75;5089688;28;20092;-67
2023/10/16 01:08:17;;;;;;;11.05;5.55;;;;;;;8.76;69.58;102321.19;5094668;28;20023;-67
2023/10/16 01:10:47;;;;;;;9.15;5.53;;;;;;;8.77;70.12;102323.75;5106914;28;20192;-67
2023/10/16 01:13:16;;;;;;;7.75;5.30;;;;;;;8.79;70.10;102316.09;5095877;28;20490;-67
2023/10/16 01:15:46;;;;;;;8.60;5.40;;;;;;;8.79;69.98;102315.25;5112233;28;20023;-67
2023/10/16 01:18:15;;;;;;;6.50;5.13;;;;;;;8.76;69.59;102311.00;5105065;28;20024;-67
2023/10/16 01:20:47;;;;;;;6.97;5.60;;;;;;;8.74;70.17;102302.03;5094993;28;20107;-67
2023/10/16 01:23:19;;;;;;;8.50;5.45;;;;;;;8.76;69.92;102299.91;5108442;28;20031;-67
2023/10/16 01:25:48;;;;;;;;;;;;;;;8.96;69.50;102305.53;5110493;28;20116;-67
2023/10/16 01:28:17;;;;;;;7.32;5.35;;;;;;;8.76;69.62;102304.56;5103140;28;19920;-67
2023/10/16 01:30:45;;;;;;;6.45;5.30;;;;;;;8.71;69.62;102294.13;5103306;28;20024;-67
2023/10/16 01:33:11;;;;;;;6.00;5.40;;;;;;;8.71;69.51;102304.34;5109255;28;20540;-67
2023/10/16 01:35:36;;;;;;;7.88;5.07;;;;;;;8.68;69.38;102304.75;5096950;28;20028;-67
2023/10/16 01:38:24;;;;;;;8.35;5.88;;;;;;;8.64;69.70;102296.00;5102900;28;20208;-67
2023/10/16 01:41:13;;;;;;;11.73;5.88;;;;;;;8.62;69.46;102303.66;5104463;28;20047;-67
2023/10/16 01:43:39;;;;;;;11.38;5.75;;;;;;;8.62;70.16;102300.91;5111083;28;20047;-67
2023/10/16 01:46:08;;;;;;;8.10;5.82;;;;;;;8.63;69.89;102304.50;5100595;28;20036;-67
2023/10/16 01:48:44;;;;;;;9.38;6.47;;;;;;;8.65;70.28;102296.88;5102972;28;20032;-67
2023/10/16 01:51:11;;;;;;;9.73;6.13;;;;;;;8.66;70.48;102298.56;5099533;28;20499;-67
2023/10/16 01:53:39;;;;;;;7.30;5.63;;;;;;;8.60;70.29;102298.31;5113376;28;20032;-66
2023/10/16 01:56:14;;;;;;;7.65;6.38;;;;;;;8.63;70.54;102293.44;5103642;28;20054;-67
2023/10/16 01:58:41;;;;;;;10.15;5.88;;;;;;;8.65;70.42;102296.88;5103135;28;20103;-67
2023/10/16 02:01:11;;;;;;;7.53;5.70;;;;;;;8.63;70.22;102297.06;5095832;28;20027;-67
2023/10/16 02:03:38;;;;;;;7.75;5.72;;;;;;;8.68;70.46;102291.75;5110981;28;20119;-67
2023/10/16 02:06:04;;;;;;;9.13;6.07;;;;;;;8.62;70.44;102297.28;5099747;28;20027;-67
2023/10/16 02:08:32;;;;;;;6.90;6.05;;;;;;;8.64;70.34;102284.91;5106335;28;20023;-67
2023/10/16 02:10:57;;;;;;;8.88;6.10;;;;;;;8.60;70.37;102281.72;5100379;28;20036;-67
2023/10/16 02:13:23;;;;;;;8.85;6.25;;;;;;;8.56;70.42;102288.72;5109954;28;20061;-67
2023/10/16 02:15:48;;;;;;;10.23;6.60;;;;;;;8.57;70.66;102289.59;5100603;28;20020;-67
2023/10/16 02:18:22;;;;;;;11.50;6.65;;;;;;;8.57;70.64;102287.69;5101168;28;20105;-67
2023/10/16 02:20:49;;;;;;;10.23;6.32;;;;;;;8.58;70.72;102280.22;5104005;28;20031;-67
2023/10/16 02:23:15;;;;;;;9.25;5.70;;;;;;;8.56;70.07;102272.09;5109499;28;20119;-67
2023/10/16 02:25:41;;;;;;;8.65;5.97;;;;;;;8.52;70.32;102278.25;5099192;28;20406;-67
2023/10/16 02:28:13;;;;;;;8.77;6.70;;;;;;;8.51;69.85;102282.94;5098256;28;20034;-67
2023/10/16 02:30:39;;;;;;;8.88;6.68;;;;;;;8.50;70.07;102284.00;5104261;28;20031;-67
2023/10/16 02:33:12;;;;;;;9.63;6.18;;;;;;;8.47;69.89;102278.88;5098898;28;20028;-67
2023/10/16 02:35:42;;;;;;;7.53;6.15;;;;;;;8.48;70.35;102276.97;5110652;28;20051;-67
2023/10/16 02:38:23;;;;;;;8.18;6.43;;;;;;;8.42;70.44;102273.13;5096119;28;20027;-67
2023/10/16 02:40:52;;;;;;;8.68;6.40;;;;;;;8.45;69.96;102269.94;5104879;28;20055;-67
2023/10/16 02:43:18;;;;;;;8.20;6.10;;;;;;;8.44;70.17;102270.97;5096079;28;20118;-67
2023/10/16 02:46:03;;;;;;;8.60;6.30;;;;;;;8.43;69.93;102266.53;5103467;28;20123;-67
2023/10/16 02:48:29;;;;;;;7.90;6.13;;;;;;;8.40;70.08;102266.91;5102893;28;20024;-67
2023/10/16 02:50:56;;;;;;;11.55;6.78;;;;;;;8.41;70.41;102268.66;5100919;28;20028;-67
2023/10/16 02:53:23;;;;;;;8.27;6.70;;;;;;;8.39;70.57;102264.38;5105515;28;20032;-67
2023/10/16 02:55:54;;;;;;;9.23;6.10;;;;;;;8.41;71.16;102268.66;5093250;28;20048;-68
2023/10/16 02:58:23;;;;;;;7.60;6.35;;;;;;;8.42;70.48;102266.72;5092310;28;20028;-67
2023/10/16 03:00:53;;;;;;;12.98;6.70;;;;;;;8.42;71.08;102272.25;5098183;28;20034;-67
2023/10/16 03:03:28;;;;;;;9.60;6.68;;;;;;;8.43;70.80;102271.19;5112059;28;20038;-67
2023/10/16 03:05:55;;;;;;;8.32;6.40;;;;;;;8.42;70.96;102273.13;5110907;28;20114;-67
2023/10/16 03:08:30;;;;;;;10.48;6.75;;;;;;;8.44;70.53;102268.22;5109405;28;20035;-67
2023/10/16 03:11:06;;;;;;;10.68;6.93;;;;;;;8.43;71.15;102272.06;5094038;28;20070;-67
2023/10/16 03:13:35;;;;;;;8.43;6.82;;;;;;;8.36;70.66;102274.72;5112563;28;20084;-67
2023/10/16 03:16:11;;;;;;;7.97;7.07;;;;;;;8.35;70.31;102266.66;5110471;28;20035;-67
2023/10/16 03:18:42;;;;;;;7.57;6.60;;;;;;;8.38;70.45;102265.44;5110622;28;20028;-67
2023/10/16 03:21:30;;;;;;;9.52;6.53;;;;;;;8.38;70.46;102271.81;5112267;28;20497;-67
2023/10/16 03:23:58;;;;;;;7.53;6.38;;;;;;;8.35;70.32;102269.41;5096868;28;20048;-67
2023/10/16 03:26:30;;;;;;;8.77;6.63;;;;;;;8.39;70.63;102262.44;5090309;28;20123;-67
2023/10/16 03:28:57;;;;;;;10.23;6.95;;;;;;;8.34;69.78;102264.94;5094382;28;20024;-67
2023/10/16 03:31:23;;;;;;;9.43;7.05;;;;;;;8.36;69.83;102255.38;5096721;28;20020;-67
2023/10/16 03:33:53;;;;;;;9.32;6.57;;;;;;;8.36;70.39;102258.13;5090433;28;20036;-67
2023/10/16 03:36:19;;;;;;;9.63;6.82;;;;;;;8.32;69.78;102259.59;5092251;28;20032;-67
2023/10/16 03:38:45;;;;;;;8.32;6.38;;;;;;;8.29;70.25;102261.91;5091091;28;20031;-67
2023/10/16 03:43:58;;;;;;;8.98;7.13;;;;;;;8.27;69.63;102258.53;5103796;28;20518;-67
2023/10/16 03:46:33;;;;;;;8.70;6.78;;;;;;;8.24;69.80;102261.69;5109967;28;20030;-67
2023/10/16 03:48:58;;;;;;;9.25;6.88;;;;;;;8.18;70.13;102268.91;5098490;28;20028;-67
2023/10/16 03:51:24;;;;;;;8.10;6.95;;;;;;;8.21;69.13;102267.63;5102141;28;20106;-67
2023/10/16 03:53:53;;;;;;;11.05;6.40;;;;;;;8.20;69.13;102265.91;5097430;28;20487;-66
2023/10/16 03:56:20;;;;;;;11.05;6.93;;;;;;;8.18;69.08;102262.50;5092593;28;20032;-66
2023/10/16 03:58:45;;;;;;;7.70;6.43;;;;;;;8.13;69.69;102265.88;5091328;28;20036;-67
2023/10/16 04:01:11;;;;;;;8.20;6.38;;;;;;;8.14;69.06;102255.69;5107052;28;20417;-66
2023/10/16 04:03:46;;;;;;;7.35;6.45;;;;;;;8.10;70.05;102261.63;5096457;28;20486;-67
2023/10/16 04:06:19;;;;;;;8.30;6.85;;;;;;;8.11;69.69;102263.31;5107889;28;20077;-67
2023/10/16 04:08:50;;;;;;;8.27;6.95;;;;;;;8.09;69.17;102265.41;5097239;28;20405;-67
2023/10/16 04:11:16;;;;;;;8.85;7.07;;;;;;;8.10;69.31;102258.84;5097885;28;20039;-67
2023/10/16 04:13:47;;;;;;;8.43;6.75;;;;;;;8.06;69.92;102263.06;5106941;28;20084;-67
2023/10/16 04:19:34;;;;;;;11.40;6.32;;;;;;;8.08;68.89;102252.66;5104890;28;20126;-68
2023/10/16 04:21:51;;;;;;;8.82;6.45;;;;;;;8.02;68.94;102253.47;5109336;28;20104;-67
2023/10/16 04:29:34;;;;;;;8.63;6.35;;;;;;;8.00;69.47;102250.03;5090129;28;20042;-66
2023/10/16 04:50:29;;;;;;;7.82;6.97;;;;;;;7.91;69.71;102233.81;5097437;28;20023;-68
2023/10/16 05:22:03;;;;;;;9.80;7.68;;;;;;;7.95;70.80;102213.00;5098139;28;20048;-67
2023/10/16 06:14:10;;;;;;;11.43;7.88;;;;;;;8.03;71.25;102222.00;5095248;28;20121;-66
2023/10/16 06:16:38;;;;;;;8.80;7.22;;;;;;;8.01;71.47;102218.56;5100844;28;20494;-67
2023/10/16 06:19:07;;;;;;;11.88;7.32;;;;;;;8.05;71.51;102210.72;5100784;28;20036;-66
2023/10/16 06:21:34;;;;;;;13.93;8.27;;;;;;;8.04;71.30;102212.63;5095719;28;20129;-66
2023/10/16 06:23:59;;;;;;;14.02;9.25;;;;;;;8.00;70.99;102216.00;5094009;28;20088;-67
2023/10/16 06:26:27;;;;;;;12.10;8.70;;;;;;;8.01;71.63;102209.41;5096529;28;20127;-66
2023/10/16 06:28:52;;;;;;;13.32;9.48;;;;;;;8.00;70.94;102214.09;5094909;28;20036;-67
2023/10/16 06:31:25;;;;;;;14.68;9.73;;;;;;;8.02;71.63;102213.91;5099143;28;20050;-67
2023/10/16 06:33:56;;;;;;;12.98;8.95;;;;;;;8.04;72.01;102220.94;5097847;28;20032;-68
2023/10/16 06:36:24;;;;;;;10.68;8.90;;;;;;;8.00;71.49;102216.88;5097479;28;20031;-66
2023/10/16 06:38:52;;;;;;;8.60;7.78;;;;;;;8.01;71.21;102217.72;5093868;28;20364;-66
2023/10/16 06:41:24;;;;;;;11.65;8.15;;;;;;;8.02;71.66;102220.28;5091696;28;20036;-66
2023/10/16 06:43:50;;;;;;;11.03;7.83;;;;;;;8.05;71.21;102214.34;5093889;28;20025;-65
2023/10/16 06:46:23;;;;;;;12.55;7.18;;;;;;;8.28;78.37;102218.72;5098390;28;20032;-64
2023/10/16 06:48:52;;;;;;;11.15;8.73;;;;;;;8.15;72.63;102211.22;5098053;28;20043;-66
2023/10/16 06:51:25;;;;;;;11.90;7.88;;;;;;;8.14;71.42;102214.19;5101592;28;20041;-73
2023/10/16 06:53:51;;;;;;;15.30;8.68;;;;;;;8.14;71.68;102215.03;5094986;28;20031;-65
2023/10/16 06:56:31;;;;;;;9.68;8.07;;;;;;;8.12;71.40;102220.75;5092262;28;20244;-65
2023/10/16 06:58:57;;;;;;;9.45;7.95;;;;;;;8.13;71.27;102224.38;5102071;28;20027;-64
2023/10/16 07:01:25;;;;;;;14.68;8.52;;;;;;;8.18;71.83;102227.41;5095113;28;20104;-64
2023/10/16 07:03:50;;;;;;;10.50;7.90;;;;;;;8.18;71.12;102229.31;5100082;28;20157;-65
2023/10/16 07:06:16;;;;;;;10.95;8.02;;;;;;;8.10;71.51;102228.44;5100327;28;20492;-64
2023/10/16 07:08:41;;;;;;;8.93;8.02;;;;;;;8.09;71.44;102229.47;5093918;28;20101;-64
2023/10/16 07:11:11;;;;;;;20.23;7.60;;;;;;;8.25;75.79;102224.66;5093876;28;20445;-65
2023/10/16 07:13:38;;;;;;;11.32;8.77;;;;;;;8.21;71.84;102228.91;5095693;28;20036;-65
2023/10/16 07:16:05;;;;;;;11.30;8.60;;;;;;;8.19;71.53;102228.25;5089604;28;20028;-65
2023/10/16 07:18:33;;;;;;;12.20;8.70;;;;;;;8.20;72.12;102230.81;5087978;28;20039;-65
2023/10/16 07:23:34;;;;;;;10.23;8.55;;;;;;;8.18;72.05;102224.66;5094337;28;20119;-66
2023/10/16 07:26:00;;;;;;;10.55;8.23;;;;;;;8.17;71.61;102228.44;5096759;28;20059;-66
2023/10/16 07:28:27;;;;;;;13.15;8.68;;;;;;;8.22;72.07;102230.63;5099990;28;20024;-67
2023/10/16 07:30:56;;;;;;;21.10;9.98;;;;;;;8.19;71.83;102225.50;5100751;28;20123;-66
2023/10/16 07:33:22;;;;;;;24.17;9.55;;;;;;;8.22;72.08;102236.16;5103478;28;20032;-66
2023/10/16 07:35:49;;;;;;;26.80;9.88;;;;;;;8.24;72.08;102231.25;5096206;28;20032;-68
2023/10/16 07:38:21;;;;;;;30.75;10.30;;;;;;;8.32;72.61;102225.56;5096514;28;20028;-67
2023/10/16 07:40:54;;;;;;;;;;;;;;;8.55;72.04;102233.59;5096580;28;20483;-68
2023/10/16 07:43:27;;;;;;;11.98;7.97;;;;;;;8.51;71.92;102233.13;5101542;28;19962;-67
2023/10/16 07:48:45;;;;;;;14.40;8.20;;;;;;;8.63;71.04;102225.09;5096018;28;20116;-65
2023/10/16 07:51:18;;;;;;;11.77;8.18;;;;;;;8.69;70.97;102220.66;5101777;28;20020;-65
2023/10/16 07:53:43;;;;;;;9.60;8.15;;;;;;;8.71;71.34;102218.53;5089409;28;20030;-66
2023/10/16 07:58:54;;;;;;;10.68;8.50;;;;;;;8.76;71.57;102213.22;5090965;28;20506;-65
2023/10/16 08:01:32;;;;;;;10.70;8.68;;;;;;;8.81;72.10;102214.31;5108700;28;20112;-64
2023/10/16 08:03:58;;;;;;;11.95;8.63;;;;;;;8.87;72.18;102207.06;5096823;28;20043;-65
2023/10/16 08:06:25;;;;;;;10.32;8.35;;;;;;;8.89;72.02;102212.44;5094947;28;20062;-65
2023/10/16 08:09:20;;;;;;;10.65;8.32;;;;;;;8.90;71.97;102219.66;5102008;28;20034;-61
2023/10/16 08:11:42;;;;;;;12.07;8.63;;;;;;;8.94;72.07;102224.56;5093848;28;20035;-66
2023/10/16 08:14:08;;;;;;;11.87;8.73;;;;;;;8.95;72.31;102219.88;5092800;28;20123;-66
2023/10/16 08:16:39;;;;;;;12.82;8.05;;;;;;;8.99;72.52;102227.56;5095296;28;20020;-65
2023/10/16 08:19:14;;;;;;;9.40;8.30;;;;;;;9.03;72.42;102217.75;5093200;28;20039;-67
2023/10/16 08:21:42;;;;;;;10.13;8.50;;;;;;;9.07;72.16;102220.97;5098959;28;20035;-66
2023/10/16 08:24:28;;;;;;;10.52;7.72;;;;;;;9.10;72.69;102224.19;5090869;28;20491;-65
2023/10/16 08:27:07;;;;;;;9.65;7.95;;;;;;;9.14;72.49;102223.75;5094392;28;20035;-63
2023/10/16 08:29:37;;;;;;;9.30;8.13;;;;;;;9.17;72.56;102221.44;5097185;28;20114;-62
2023/10/16 08:34:46;;;;;;;12.20;7.72;;;;;;;9.23;72.68;102220.56;5096503;28;20038;-64
2023/10/16 08:37:13;;;;;;;11.60;7.78;;;;;;;9.25;72.71;102217.59;5092169;28;20024;-66
2023/10/16 08:39:47;;;;;;;10.63;7.97;;;;;;;9.30;72.79;102217.81;5093375;28;20039;-69
2023/10/16 08:42:18;;;;;;;11.18;7.90;;;;;;;9.32;73.09;102222.09;5102563;28;20135;-69
2023/10/16 08:45:14;;;;;;;10.40;6.72;;;;;;;9.77;79.37;102225.06;5092634;28;20047;-69
2023/10/16 08:47:42;;;;;;;10.95;7.68;;;;;;;9.75;73.58;102221.69;5096554;28;20039;-71
2023/10/16 08:50:17;;;;;;;11.45;7.93;;;;;;;9.85;72.70;102218.47;5095345;28;20063;-71
2023/10/16 08:52:49;;;;;;;10.40;7.57;;;;;;;9.97;72.37;102208.41;5098621;28;20020;-70
2023/10/16 08:55:15;;;;;;;9.95;7.70;;;;;;;10.05;72.09;102216.50;5093817;28;20028;-71
2023/10/16 08:57:41;;;;;;;9.90;6.05;;;;;;;10.54;78.14;102223.44;5091292;28;20031;-71
2023/10/16 09:00:10;;;;;;;9.45;7.40;;;;;;;10.51;71.87;102223.88;5094309;28;20030;-70
2023/10/16 09:02:38;;;;;;;14.13;7.10;;;;;;;10.53;71.23;102224.53;5095193;28;20027;-70
2023/10/16 09:05:08;;;;;;;9.65;6.40;;;;;;;10.57;70.89;102220.25;5095058;28;20027;-71
2023/10/16 09:07:36;;;;;;;13.60;7.20;;;;;;;10.60;71.29;102226.41;5091468;28;20024;-70
2023/10/16 09:10:02;;;;;;;12.02;7.13;;;;;;;10.65;70.88;102223.81;5085959;28;20024;-71
2023/10/16 09:12:27;;;;;;;9.88;6.22;;;;;;;10.70;71.25;102224.03;5088469;28;20119;-71
2023/10/16 09:15:05;;;;;;;11.60;6.88;;;;;;;10.72;71.10;102228.28;5099683;28;20036;-71
2023/10/16 09:17:33;;;;;;;11.20;6.50;;;;;;;10.73;71.53;102220.81;5094790;28;20020;-71
2023/10/16 09:19:58;;;;;;;6.78;5.68;;;;;;;10.76;71.36;102225.91;5103731;28;20039;-72
2023/10/16 09:22:26;;;;;;;10.02;5.82;;;;;;;10.81;71.16;102223.34;5088840;28;20072;-75
2023/10/16 09:24:52;;;;;;;6.80;5.90;;;;;;;10.92;70.97;102219.00;5102077;28;20138;-73
2023/10/16 09:27:18;;;;;;;8.70;5.30;;;;;;;11.01;70.19;102221.31;5097697;28;20161;-75
2023/10/16 09:29:56;;;;;;;14.52;5.80;;;;;;;11.12;70.89;102224.44;5089514;28;20076;-73
2023/10/16 09:32:26;;;;;;;9.35;5.53;;;;;;;11.27;70.63;102219.41;5093696;28;20713;-79
2023/10/16 09:34:57;;;;;;;9.40;5.13;;;;;;;11.42;70.57;102219.94;5095177;28;20100;-77
2023/10/16 09:37:34;;;;;;;9.38;4.90;;;;;;;11.52;68.90;102216.69;5106882;28;20019;-80
2023/10/16 09:40:06;;;;;;;8.27;4.45;;;;;;;11.70;69.73;102219.50;5097197;28;20066;-74
2023/10/16 09:42:34;;;;;;;5.88;4.40;;;;;;;11.85;69.71;102221.13;5109694;28;20463;-79
2023/10/16 09:45:09;;;;;;;6.78;4.40;;;;;;;11.93;67.67;102223.59;5107993;28;20034;-78
2023/10/16 09:47:38;;;;;;;7.05;4.40;;;;;;;12.03;67.98;102222.00;5099612;28;20134;-75
2023/10/16 09:50:16;;;;;;;5.72;4.35;;;;;;;12.13;68.05;102224.25;5097192;28;20032;-73
2023/10/16 09:52:45;;;;;;;6.43;3.78;;;;;;;12.14;66.75;102219.53;5096505;28;20052;-74
2023/10/16 09:55:11;;;;;;;6.97;4.20;;;;;;;12.27;67.62;102214.69;5097082;28;20468;-76
2023/10/16 09:57:50;;;;;;;5.07;4.45;;;;;;;12.32;67.40;102218.72;5101588;28;20073;-76
2023/10/16 10:00:28;;;;;;;5.28;4.55;;;;;;;12.37;66.99;102214.13;5097450;28;20471;-76
2023/10/16 10:03:12;;;;;;;8.32;4.18;;;;;;;12.46;67.48;102209.97;5109178;28;20063;-73
2023/10/16 10:05:48;;;;;;;7.00;4.22;;;;;;;12.53;66.27;102210.72;5099375;28;20432;-74
2023/10/16 10:08:27;;;;;;;4.20;3.80;;;;;;;12.61;66.34;102212.34;5098874;28;20119;-81
2023/10/16 10:11:23;;;;;;;4.40;3.65;;;;;;;12.66;66.21;102211.66;5097734;28;20036;-75
2023/10/16 10:14:09;;;;;;;10.32;3.95;;;;;;;12.73;66.92;102206.84;5092199;28;20036;-75
2023/10/16 10:16:37;;;;;;;5.53;3.20;;;;;;;12.75;65.58;102201.91;5099162;28;20110;-75
2023/10/16 10:19:19;;;;;;;4.32;3.20;;;;;;;12.76;65.36;102203.59;5097782;28;20027;-74
2023/10/16 10:21:44;;;;;;;5.22;3.30;;;;;;;12.80;65.27;102207.59;5099351;28;20031;-76
2023/10/16 10:24:15;;;;;;;6.00;3.35;;;;;;;12.77;63.68;102197.81;5102473;28;20031;-77
2023/10/16 10:26:51;;;;;;;7.72;3.08;;;;;;;12.80;63.70;102195.63;5101333;28;20139;-76
2023/10/16 10:29:16;;;;;;;7.40;3.47;;;;;;;12.87;65.04;102193.59;5099786;28;20398;-76
2023/10/16 10:31:44;;;;;;;7.05;3.50;;;;;;;12.92;64.50;102199.28;5095036;28;20020;-75
2023/10/16 10:34:27;;;;;;;9.25;3.75;;;;;;;12.95;64.41;102202.47;5103298;28;20062;-75
2023/10/16 10:36:53;;;;;;;6.63;2.65;;;;;;;12.99;64.28;102200.91;5098976;28;20483;-76
2023/10/16 10:39:21;;;;;;;5.18;2.70;;;;;;;13.02;62.98;102206.00;5098080;28;20477;-73
2023/10/16 10:41:51;;;;;;;4.05;2.70;;;;;;;13.06;62.85;102198.03;5091036;28;20036;-73
2023/10/16 10:44:19;;;;;;;4.57;2.85;;;;;;;13.10;62.14;102196.47;5098919;28;20053;-78
2023/10/16 10:46:53;;;;;;;4.97;2.70;;;;;;;13.12;62.72;102194.28;5106326;28;20391;-78
2023/10/16 10:49:26;;;;;;;3.80;2.40;;;;;;;13.14;62.56;102194.06;5098365;28;20028;-75
2023/10/16 10:51:53;;;;;;;4.13;2.60;;;;;;;13.13;61.99;102189.56;5104509;28;20044;-76
2023/10/16 10:54:23;;;;;;;6.15;3.03;;;;;;;13.15;62.79;102190.19;5103901;28;20046;-76
2023/10/16 10:56:48;;;;;;;7.10;3.10;;;;;;;13.13;61.79;102190.44;5106146;28;20139;-73
2023/10/16 10:59:40;;;;;;;4.28;2.10;;;;;;;13.12;61.36;102190.63;5100283;28;20053;-76
2023/10/16 11:02:20;;;;;;;4.82;2.28;;;;;;;13.09;61.44;102191.13;5102427;28;20023;-77
2023/10/16 11:04:53;;;;;;;4.85;2.58;;;;;;;13.09;61.12;102188.34;5104649;28;20596;-83
2023/10/16 11:07:26;;;;;;;4.78;2.60;;;;;;;13.12;61.73;102176.69;5096357;28;20028;-78
2023/10/16 11:09:57;;;;;;;5.50;3.10;;;;;;;13.20;61.58;102179.16;5111071;28;20050;-76
2023/10/16 11:12:26;;;;;;;7.32;2.90;;;;;;;13.21;61.65;102180.88;5101994;28;20028;-68
2023/10/16 11:14:53;;;;;;;5.85;2.92;;;;;;;13.21;61.33;102176.13;5092332;28;20062;-72
2023/10/16 11:17:36;;;;;;;6.20;2.65;;;;;;;13.28;62.21;102176.03;5092632;28;20406;-74
2023/10/16 11:20:27;;;;;;;5.50;2.60;;;;;;;13.24;59.47;102174.81;5104049;28;20465;-74
2023/10/16 11:22:59;;;;;;;3.17;2.42;;;;;;;13.26;60.14;102173.50;5091485;28;20472;-76
2023/10/16 11:25:28;;;;;;;5.78;2.42;;;;;;;13.27;60.89;102169.63;5098652;28;20096;-76
2023/10/16 11:27:57;;;;;;;3.10;2.42;;;;;;;13.29;61.24;102162.97;5105749;28;20030;-75
2023/10/16 11:30:26;;;;;;;5.53;2.45;;;;;;;13.27;60.09;102171.56;5101098;28;20147;-77
2023/10/16 11:32:53;;;;;;;3.88;2.30;;;;;;;13.23;58.92;102160.03;5097251;28;20038;-76
2023/10/16 11:35:19;;;;;;;5.22;2.22;;;;;;;13.27;59.07;102161.25;5096572;28;20020;-76
2023/10/16 11:37:50;;;;;;;3.90;2.30;;;;;;;13.32;59.36;102159.69;5094332;28;20058;-72
2023/10/16 11:40:39;;;;;;;3.13;2.00;;;;;;;13.27;58.80;102152.91;5095592;28;20043;-76
2023/10/16 11:43:07;;;;;;;4.53;1.95;;;;;;;13.31;58.74;102152.41;5099060;28;20450;-66
2023/10/16 11:45:33;;;;;;;4.40;1.75;;;;;;;13.26;57.79;102151.19;5096752;28;20031;-77
2023/10/16 11:48:35;;;;;;;5.07;1.90;;;;;;;13.27;59.17;102146.47;5097415;28;20035;-77
2023/10/16 11:51:08;;;;;;;5.28;2.22;;;;;;;13.22;57.59;102143.53;5100816;28;20635;-69
2023/10/16 11:53:36;;;;;;;2.95;1.83;;;;;;;13.16;58.43;102142.53;5093175;28;20032;-72
2023/10/16 11:56:05;;;;;;;6.63;1.92;;;;;;;13.12;59.30;102138.53;5090648;28;21755;-71
2023/10/16 11:58:31;;;;;;;3.88;2.25;;;;;;;13.14;59.62;102135.50;5101213;28;20658;-70
2023/10/16 12:01:07;;;;;;;4.78;2.20;;;;;;;13.08;58.66;102136.44;5089431;28;20032;-70
2023/10/16 12:03:33;;;;;;;4.45;2.08;;;;;;;13.03;58.56;102131.59;5096518;28;20841;-70
2023/10/16 12:05:59;;;;;;;4.68;2.40;;;;;;;12.96;59.54;102126.13;5089772;28;20031;-71
2023/10/16 12:08:24;;;;;;;4.10;1.90;;;;;;;12.96;59.65;102128.91;5084381;28;20043;-69
2023/10/16 12:10:50;;;;;;;5.03;2.50;;;;;;;12.94;60.44;102125.53;5096112;28;20043;-70
2023/10/16 12:13:15;;;;;;;5.10;2.60;;;;;;;12.96;61.56;102125.28;5091494;28;20482;-72
2023/10/16 12:15:43;;;;;;;3.40;1.98;;;;;;;12.95;60.96;102118.84;5092287;28;20043;-75
2023/10/16 12:18:12;;;;;;;3.13;1.52;;;;;;;12.96;60.07;102120.53;5095895;28;20483;-64
2023/10/16 12:20:38;;;;;;;2.47;1.23;;;;;;;12.95;58.58;102118.00;5101948;28;20649;-73
2023/10/16 12:23:04;;;;;;;4.00;1.30;;;;;;;12.92;58.62;102110.97;5096013;28;20043;-73
2023/10/16 12:25:34;;;;;;;2.55;1.38;;;;;;;12.91;58.60;102111.22;5098292;28;20048;-73
2023/10/16 12:28:00;;;;;;;2.00;1.05;;;;;;;12.89;58.39;102105.00;5097675;28;20028;-72
2023/10/16 12:30:27;;;;;;;3.13;1.17;;;;;;;12.89;58.65;102111.47;5094375;28;20126;-73
2023/10/16 12:32:56;;;;;;;2.85;1.33;;;;;;;12.88;58.38;102109.75;5085079;28;20020;-73
2023/10/16 12:35:22;;;;;;;3.50;1.80;;;;;;;12.88;58.82;102097.75;5093113;28;20028;-73
2023/10/16 12:37:49;;;;;;;4.03;1.70;;;;;;;12.85;59.71;102104.66;5092050;28;20228;-73
2023/10/16 12:42:58;;;;;;;4.18;1.95;;;;;;;12.78;58.38;102098.34;5100019;28;20085;-73
2023/10/16 12:45:25;;;;;;;4.50;1.70;;;;;;;12.81;58.65;102086.72;5102719;28;20036;-73
2023/10/16 12:47:54;;;;;;;3.78;1.80;;;;;;;12.82;59.36;102087.56;5095192;28;20111;-74
2023/10/16 12:50:24;;;;;;;3.72;1.90;;;;;;;12.82;59.42;102087.56;5101353;28;20040;-74
2023/10/16 12:52:57;;;;;;;4.30;2.05;;;;;;;12.83;59.45;102090.13;5091547;28;20028;-72
2023/10/16 12:55:23;;;;;;;4.72;1.85;;;;;;;12.81;58.64;102089.53;5094331;28;20368;-72
2023/10/16 12:57:56;;;;;;;5.43;2.05;;;;;;;12.81;58.90;102077.50;5088136;28;20036;-73
2023/10/16 13:00:23;;;;;;;2.75;2.03;;;;;;;12.81;59.72;102080.28;5086735;28;20144;-72
2023/10/16 13:02:51;;;;;;;4.75;2.00;;;;;;;12.81;59.46;102086.72;5094414;28;20032;-73
2023/10/16 13:05:18;;;;;;;3.60;2.10;;;;;;;12.83;60.99;102081.75;5095192;28;20038;-75
2023/10/16 13:07:45;;;;;;;3.67;2.03;;;;;;;12.81;60.46;102086.72;5090022;28;20032;-73
2023/10/16 13:10:26;;;;;;;5.00;1.92;;;;;;;12.83;60.04;102081.75;5093219;28;20055;-72
2023/10/16 13:12:52;;;;;;;5.45;2.30;;;;;;;12.84;59.71;102080.66;5094209;28;20012;-69
2023/10/16 13:15:29;;;;;;;4.38;2.33;;;;;;;12.85;60.08;102087.06;5094930;28;20031;-70
2023/10/16 13:17:55;;;;;;;7.22;2.10;;;;;;;12.84;60.10;102086.22;5097543;28;20102;-73
2023/10/16 13:20:20;;;;;;;4.95;1.90;;;;;;;12.84;60.07;102080.66;5094792;28;20028;-70
2023/10/16 13:22:49;;;;;;;4.68;2.25;;;;;;;12.82;59.41;102077.28;5089593;28;20051;-70
2023/10/16 13:25:18;;;;;;;3.17;2.00;;;;;;;12.83;59.71;102078.13;5091207;28;20062;-69
2023/10/16 13:27:46;;;;;;;5.47;2.00;;;;;;;12.85;60.47;102078.72;5094237;28;20175;-71
2023/10/16 13:30:11;;;;;;;3.83;2.25;;;;;;;12.87;62.27;102073.78;5094214;28;20020;-69
2023/10/16 13:32:41;;;;;;;4.93;2.30;;;;;;;12.86;60.77;102072.94;5098846;28;20412;-71
2023/10/16 13:35:12;;;;;;;7.10;2.10;;;;;;;12.85;59.77;102078.72;5094233;28;20074;-69
2023/10/16 13:37:39;;;;;;;3.67;2.30;;;;;;;12.85;60.00;102079.59;5095133;28;20496;-70
2023/10/16 13:40:15;;;;;;;4.00;2.08;;;;;;;12.84;59.70;102075.09;5094933;28;20432;-70
2023/10/16 13:42:40;;;;;;;8.13;2.20;;;;;;;12.87;59.82;102073.78;5093702;28;20078;-69
2023/10/16 13:45:11;;;;;;;5.97;2.53;;;;;;;12.90;60.77;102073.28;5095978;28;20028;-69